VABB/BOM METAR and TAF weather

Enter ICAO airport designator
Station Type Date Time Source
VABB METAR 2018/12/11 22:00 UTC NOAA

VABB 112200Z 02004KT 2500 FU NSC 24/18 Q1012 NOSIG


Station Type Date Time Source
VABB Decoded METAR 2018/12/11 22:00 UTC NOAA

Bombay / Santacruz, India (VABB) 19-07N 072-51E 14M
Dec 11, 2018 - 05:00 PM EST / 2018.12.11 2200 UTC
Wind: from the NNE (020 degrees) at 5 MPH (4 KT):0
Visibility: 1 mile(s):0
Weather: smoke
Temperature: 75 F (24 C)
Dew Point: 64 F (18 C)
Relative Humidity: 69%
Pressure (altimeter): 29.88 in. Hg (1012 hPa)
ob: VABB 112200Z 02004KT 2500 FU NSC 24/18 Q1012 NOSIG
cycle: 22

Station Type Date Time Source
VABB TAF 2018/12/11 18:04 UTC NOAA

TAF VABB 111700Z 1118/1224 12004KT 3000 FU NSC
BECMG 1121/1123 00000KT
BECMG 1200/1202 09005KT 2000 FU
BECMG 1204/1206 3000 FU
BECMG 1209/1211 32006KT 4000 FU
BECMG 1215/1217 05004KT 3000 FU
BECMG 1218/1220 12004KT
BECMG 1221/1223 00000KT


Example: see airport list